Wetterstation-Oberesslingen
Wetterdaten: aktuell Donnerstag, 30.11.2023 15:40
Datum Zeit Temperatur BodenT. -10 Temp+5cm Luftfeuchte Bod.Feuchte Luftdruck Regen Wind Richtung Richtung Sonnenschein ET Solar Taupunkt Windchill Windben Empfang
30.11.2023 15:40 3,2 C 5,0 C 2,8 C 83 % 43 cb 1000,4 hPa 0,0 l/m 1,1 km/h (1 Bft) N 0 0 min 0,025 mm 5 W/m 0,6 C 3,2 C 0,0 km/h (0 Bft) 100,00 %
30.11.2023 14:40 3,4 C 5,0 C 3,9 C 81 % 43 cb 1000,6 hPa 0,0 l/m 1,1 km/h (1 Bft) S-SO 157 0 min 0,025 mm 21 W/m 0,5 C 3,4 C 1,6 km/h (1 Bft) 100,00 %
30.11.2023 13:40 3,3 C 5,0 C 5,0 C 80 % 43 cb 1000,7 hPa 0,0 l/m 1,1 km/h (1 Bft) N 0 0 min 0,025 mm 63 W/m 0,2 C 3,3 C 0,0 km/h (0 Bft) 100,00 %
30.11.2023 12:40 2,8 C 5,0 C 5,0 C 81 % 43 cb 1001,1 hPa 0,2 l/m 1,1 km/h (1 Bft) N 0 0 min 0,025 mm 62 W/m -0,1 C 2,8 C 0,0 km/h (0 Bft) 100,00 %
30.11.2023 11:40 2,1 C 5,0 C 4,4 C 83 % 43 cb 1001,4 hPa 0,0 l/m 1,1 km/h (1 Bft) S-SO 157 0 min 0,025 mm 137 W/m -0,5 C 2,1 C 1,6 km/h (1 Bft) 100,00 %
30.11.2023 10:40 1,0 C 5,0 C 2,2 C 87 % 43 cb 1002,0 hPa 0,0 l/m 1,1 km/h (1 Bft) S-SO 157 0 min 0,025 mm 65 W/m -0,9 C 1,0 C 1,6 km/h (1 Bft) 98,25 %
30.11.2023 09:40 -0,1 C 5,0 C 0,0 C 90 % 43 cb 1002,5 hPa 0,0 l/m 1,1 km/h (1 Bft) N 0 0 min 0,000 mm 33 W/m -1,5 C -0,1 C 0,0 km/h (0 Bft) 99,12 %
30.11.2023 08:40 -1,3 C 5,0 C -2,2 C 93 % 43 cb 1002,8 hPa 0,0 l/m 1,1 km/h (1 Bft) N 0 0 min 0,000 mm 14 W/m -2,3 C -1,3 C 0,0 km/h (0 Bft) 100,00 %
30.11.2023 07:40 -1,5 C 5,0 C -2,8 C 92 % 43 cb 1002,7 hPa 0,0 l/m 1,1 km/h (1 Bft) N 0 0 min 0,000 mm 0 W/m -2,6 C -1,5 C 0,0 km/h (0 Bft) 100,00 %
30.11.2023 06:40 -1,7 C 5,0 C -4,4 C 93 % 43 cb 1003,4 hPa 0,0 l/m 1,1 km/h (1 Bft) S-SO 157 0 min 0,000 mm 0 W/m -2,7 C -1,7 C 1,6 km/h (1 Bft) 100,00 %
30.11.2023 05:40 -1,7 C 5,0 C -2,8 C 94 % 43 cb 1003,4 hPa 0,0 l/m 1,1 km/h (1 Bft) S-SO 157 0 min 0,000 mm 0 W/m -2,5 C -1,7 C 3,2 km/h (1 Bft) 100,00 %
30.11.2023 04:40 -2,1 C 5,6 C -5,0 C 93 % 43 cb 1004,3 hPa 0,0 l/m 1,1 km/h (1 Bft) S-SO 157 0 min 0,000 mm 0 W/m -3,1 C -2,1 C 1,6 km/h (1 Bft) 100,00 %
30.11.2023 03:40 -2,4 C 5,6 C -6,7 C 93 % 43 cb 1004,7 hPa 0,0 l/m 1,1 km/h (1 Bft) N 0 0 min 0,000 mm 0 W/m -3,4 C -2,4 C 0,0 km/h (0 Bft) 100,00 %
30.11.2023 02:40 -1,6 C 5,6 C -4,4 C 93 % 43 cb 1005,3 hPa 0,0 l/m 1,1 km/h (1 Bft) S-SO 157 0 min 0,000 mm 0 W/m -2,6 C -1,6 C 3,2 km/h (1 Bft) 100,00 %
30.11.2023 01:40 -1,9 C 5,6 C -5,6 C 93 % 42 cb 1005,6 hPa 0,0 l/m 1,1 km/h (1 Bft) N 0 0 min 0,000 mm 0 W/m -2,9 C -1,9 C 0,0 km/h (0 Bft) 100,00 %
30.11.2023 00:40 -1,3 C 5,6 C -5,0 C 92 % 42 cb 1005,9 hPa 0,0 l/m 1,1 km/h (1 Bft) S-SO 157 0 min 0,000 mm 0 W/m -2,4 C -1,3 C 1,6 km/h (1 Bft) 100,00 %
29.11.2023 23:40 -0,5 C 5,6 C -3,3 C 89 % 42 cb 1006,0 hPa 0,0 l/m 1,1 km/h (1 Bft) N 0 0 min 0,000 mm 0 W/m -2,1 C -0,5 C 0,0 km/h (0 Bft) 100,00 %
29.11.2023 22:40 -0,1 C 5,6 C -2,2 C 89 % 42 cb 1006,1 hPa 0,0 l/m 1,1 km/h (1 Bft) S-SO 157 0 min 0,000 mm 0 W/m -1,7 C -0,1 C 3,2 km/h (1 Bft) 99,12 %
29.11.2023 21:40 0,7 C 5,6 C -1,7 C 85 % 42 cb 1006,2 hPa 0,0 l/m 2,7 km/h (1 Bft) O-NO 67 0 min 0,000 mm 0 W/m -1,5 C 0,7 C 4,8 km/h (1 Bft) 100,00 %
29.11.2023 20:40 0,0 C 5,6 C -2,2 C 89 % 42 cb 1006,6 hPa 0,0 l/m 1,1 km/h (1 Bft) N-NW 337 0 min 0,000 mm 0 W/m -1,6 C 0,0 C 1,6 km/h (1 Bft) 100,00 %
29.11.2023 19:40 0,6 C 5,6 C -1,1 C 86 % 42 cb 1006,7 hPa 0,0 l/m 1,1 km/h (1 Bft) N-NW 337 0 min 0,000 mm 0 W/m -1,5 C 0,6 C 1,6 km/h (1 Bft) 100,00 %
29.11.2023 18:40 0,3 C 5,6 C -2,2 C 87 % 41 cb 1006,9 hPa 0,0 l/m 1,1 km/h (1 Bft) O 90 0 min 0,000 mm 0 W/m -1,6 C 0,3 C 1,6 km/h (1 Bft) 100,00 %
29.11.2023 17:40 2,0 C 5,6 C -0,6 C 79 % 41 cb 1007,0 hPa 0,0 l/m 1,1 km/h (1 Bft) NO 45 0 min 0,000 mm 0 W/m -1,2 C 2,0 C 3,2 km/h (1 Bft) 100,00 %
29.11.2023 16:40 2,7 C 5,6 C 1,7 C 76 % 41 cb 1007,0 hPa 0,0 l/m 1,1 km/h (1 Bft) N 0 0 min 0,025 mm 0 W/m -1,1 C 2,7 C 0,0 km/h (0 Bft) 100,00 %
29.11.2023 16:00 3,1 C 5,6 C 2,2 C 71 % 41 cb 1006,9 hPa 0,0 l/m 2,7 km/h (1 Bft) NO 45 0 min 0,025 mm 19 W/m -1,6 C 3,1 C 4,8 km/h (1 Bft) 100,00 %
_ Min-Zeit 03:50 04:55 03:40 16:00 16:00 15:00 - 16:05 - - - - - 03:50 03:50 16:10 00:05
Minimum _ -2,5 C 5,0 C -6,7 C 71 % 41 cb 1000,4 hPa - 1,1 km/h (1 Bft) - - - - - -3,5 C -2,5 C 0,0 km/h (0 Bft) 60,53 %
_ Max-Zeit 14:00 16:00 12:15 04:00 02:05 17:55 12:30 16:00 - - 16:00 16:00 11:40 15:40 14:00 22:30 16:00
Maximum _ 3,6 C 5,6 C 5,6 C 94 % 43 cb 1007,1 hPa 0,2 l/m 2,7 km/h
NO (1 Bft)
- - 0 min 0,025 mm 137 W/m 0,6 C 3,6 C 6,4 km/h
S-SO (2 Bft)
100,00 %
Durchschnitt _ 0,4 C 5,3 C -0,9 C 86 % 42 cb 1004,4 hPa #0,2 l/m 1,3 km/h (1 Bft) S-SO - #0 min. #0,150 mm 50 W/m -1,7 C 0,4 C 1,6 km/h (1 Bft) 99,80 %